Historyczne dane pomiarowe

Dodano dane terminowe – wersja testowa.

Dane z okresu 1951-2019

Wersja bazy: 1.34 [2019-03-16, lista zmian], aktualizacja planowana na 2019-04-15

Dane meteo z obszaru Polski uzyskane na podstawie danych udostępnionych przez Instytut Meteorologii i Gospodarki Wodnej – Państwowy Instytut Badawczy.

 

Wybierz Datę:    

       

TemperaturaWilgotnośćWiatrCiśnienieOpadyŚniegCzas trwania zjawisk
 Stacja t tx tn tng RH VA  wxwx mslp ppp RRR   cm mm wxwxwxwxwxwxwx
1983-08-14 13.8 18.5 8.0 5.7 74.5- 4.0 1.7---- 0.0------------
1983-08-13 16.4 20.7 15.3 13.3 78.3- 7.0 3.7---- 2.2------------
1983-08-12 20.0 27.0 13.7 12.5 67.8- 3.3 0.7---- 0.7------------
1983-08-11 17.0 24.6 13.9 10.6 79.0- 4.3 1.0---- 0.0------------
1983-08-10 18.8 25.6 12.7 10.3 74.5- 5.0 0.7---- 0.0------------
1983-08-09 18.1 24.8 12.6 9.3 83.8- 7.0 3.3---- 0.0------------
1983-08-08 17.8 22.3 12.7 11.3 84.3- 7.0 2.0---- 0.9------------
1983-08-07 15.9 19.1 12.1 10.8 86.5- 8.0 0.0---- 0.0------------
1983-08-06 15.0 18.2 9.1 8.1 78.3- 6.0 0.3---- 0.0------------
1983-08-05 12.8 14.7 9.1 6.3 72.5- 4.7 3.0---- 0.0------------
1983-08-04 11.1 15.4 10.5 10.3 91.5- 8.0 2.7---- 0.0------------
1983-08-03 18.1 21.9 15.3 15.8 78.5- 5.7 4.3---- 1.1------------
1983-08-02 19.7 23.6 16.9 13.5 80.0- 5.0 1.7---- 1.0------------
1983-08-01 20.2 29.5 11.1 6.3 64.8- 0.7 2.0---- 0.0------------
1983-07-31 18.4 24.7 9.6 5.3 56.5- 0.0 1.7---- 0.0------------
1983-07-30 17.9 23.7 15.4 15.0 74.5- 6.0 3.3---- 0.0------------
1983-07-29 19.8 24.1 15.5 11.2 65.3- 4.3 2.0---- 1.4------------
1983-07-28 23.4 28.0 20.4 17.1 60.3- 2.3 2.3---- 0.0------------
1983-07-27 23.4 32.5 14.3 9.7 59.5- 0.0 0.7---- 0.0------------
1983-07-26 20.5 28.2 12.2 9.3 57.3- 0.0 0.7---- 0.0------------
1983-07-25 16.8 21.5 11.4 9.0 73.8- 5.3 1.3---- 0.0------------
1983-07-24 18.3 23.7 11.9 9.0 69.0- 3.3 1.7---- 1.5------------
1983-07-23 17.7 23.0 13.4 13.0 73.0- 5.7 1.0---- 0.0------------
1983-07-22 12.6 14.1 8.4 5.3 84.0- 7.3 2.7---- 2.0------------
1983-07-21 13.2 15.8 9.7 9.1 66.0- 5.0 4.0---- 0.0------------
1983-07-20 15.8 25.6 12.4 12.9 83.5- 6.0 3.3---- 1.5------------
1983-07-19 23.9 29.5 17.5 14.6 62.8- 1.3 2.3---- 0.5------------
1983-07-18 23.7 31.2 14.6 11.9 60.8- 0.0 0.7---- 0.8------------
1983-07-17 21.0 27.0 14.7 11.5 70.5- 2.0 0.7---- 0.0------------
1983-07-16 20.5 27.6 14.5 11.3 69.3- 2.3 2.0---- 0.0------------
1983-07-15 19.1 24.6 14.3 11.3 75.5- 4.3 2.0---- 0.0------------
1983-07-14 17.9 22.0 16.0 8.8 84.8- 6.7 4.3---- 6.7------------
1983-07-13 20.2 25.5 15.3 13.8 73.0- 4.0 4.0---- 8.4------------
1983-07-12 18.4 23.6 15.0 15.4 86.0- 7.0 2.7---- 6.0------------
1983-07-11 18.7 24.4 15.8 13.1 86.8- 7.0 0.7---- 17.7------------
1983-07-10 22.2 28.5 13.5 10.4 57.5- 2.7 1.0---- 0.0------------
1983-07-09 21.4 27.8 12.8 8.8 57.8- 2.7 0.7---- 0.0------------
1983-07-08 21.7 27.5 14.0 9.8 50.0- 0.0 1.3---- 0.0------------
1983-07-07 22.7 28.6 15.1 12.7 62.8- 1.0 2.3---- 0.0------------
1983-07-06 22.0 28.5 14.7 10.9 62.3- 0.0 1.7---- 0.0------------
1983-07-05 20.0 27.0 12.9 9.7 70.8- 1.7 0.0---- 0.0------------
1983-07-04 19.4 26.4 12.8 9.2 70.3- 1.3 1.0---- 0.0------------
1983-07-03 18.4 24.0 12.5 9.7 68.0- 4.7 0.0---- 0.0------------
1983-07-02 17.9 23.7 14.4 12.8 79.3- 5.7 2.3---- 0.0------------
1983-07-01 20.1 26.5 11.1 8.1 69.5- 1.7 1.0---- 0.0------------
1983-06-30 16.2 22.3 7.3 4.3 68.0- 1.3 1.0---- 0.0------------
1983-06-29 14.1 17.9 7.9 4.8 59.5- 1.3 1.0---- 0.0------------
1983-06-28 15.8 21.8 14.8 15.1 84.8- 7.3 2.3---- 1.4------------
1983-06-27 21.0 26.2 16.7 13.8 73.8- 2.3 3.0---- 18.4------------
1983-06-26 20.0 25.4 15.6 14.5 78.8- 4.7 1.3---- 0.0------------
1983-06-25 19.8 27.0 10.3 10.3 59.0- 0.7 1.7---- 2.9------------
1983-06-24 18.9 25.6 7.2 3.6 59.3- 0.0 1.3---- 0.0------------
1983-06-23 17.2 25.0 7.1 3.2 64.8- 0.0 4.0---- 0.0------------
1983-06-22 17.0 20.9 12.6 10.5 70.0- 0.0 3.7---- 0.0------------
1983-06-21 18.6 25.0 12.1 9.4 72.8- 5.0 0.7---- 0.0------------
1983-06-20 17.0 20.1 15.6 9.4 91.0- 6.0 1.3---- 0.7------------
1983-06-19 13.9 16.7 11.6 10.8 96.3- 8.0 1.0---- 6.4------------
1983-06-18 11.4 14.8 8.9 8.2 89.0- 8.0 0.3---- 16.6------------
1983-06-17 11.5 13.9 9.8 9.0 75.3- 7.3 1.0---- 3.9------------
1983-06-16 11.1 13.2 8.4 7.8 83.0- 7.7 2.0---- 0.1------------
1007.8 ms

 

Źródłem pochodzenia danych jest Instytut Meteorologii i Gospodarki Wodnej – Państwowy Instytut Badawczy. Dane Instytutu Meteorologii i Gospodarki Wodnej – Państwowego Instytutu Badawczego zostały przetworzone.

Dane źródłowe można odnaleźć na stronie https://dane.imgw.pl